Philemon — V2EV6 — position and weather

sailwx.info

Track history (hours):
 
Tides and Currents Weather Stations Pressure Air Temp Water Temp Dewpoint Dewpoint Depression Visibility Wind Speed Wind Dir Waves Ship Positions

Philemon

Last reported at 2018-May-23 11:15 UTC. Time now 2018-May-23 15:11 UTC.
Position N 50°22' E 000°02'.

Length 158 m; draft 7.8 m.

Type: Ship (hazmat cat A). MMSI: 305574000.

Date/timePositionNaut miles runAvg speedWind from/ knotsBaromVisibWave heightAir tempDewpointWater temp
2018-May-23 11:15N 50°22' E 000°02'1311.2
2018-May-23 10:06N 50°27' W 000°16'111.3
2018-May-23 10:00N 50°28' W 000°18'711.2
2018-May-23 09:21N 50°31' W 000°28'411.4
2018-May-23 09:00N 50°33' W 000°34'611.4
2018-May-23 08:30N 50°35' W 000°42'711.1
2018-May-23 07:52N 50°39' W 000°52'411.5
2018-May-23 07:30N 50°41' W 000°57'510.4
2018-May-23 07:00N 50°44' W 001°04'5 9.5
2018-May-23 06:31N 50°48' W 001°07'1 1.7
2018-May-23 05:58N 50°49' W 001°05'0 0.0
2018-May-23 05:28N 50°49' W 001°05'0 0.0
2018-May-23 04:58N 50°49' W 001°05'0 0.0
2018-May-23 04:28N 50°49' W 001°05'0 0.0
2018-May-23 03:58N 50°49' W 001°05'0 0.0
2018-May-23 03:28N 50°49' W 001°05'0 0.0
2018-May-23 02:58N 50°49' W 001°05'0 0.0
2018-May-23 02:28N 50°49' W 001°05'0 0.0
2018-May-23 01:58N 50°49' W 001°05'0 0.0
2018-May-23 01:28N 50°49' W 001°05'0 0.0
2018-May-23 00:58N 50°49' W 001°05'0 0.0
2018-May-23 00:28N 50°49' W 001°05'0 0.0
2018-May-23 00:00N 50°49' W 001°05'1 2.0
2018-May-22 23:31N 50°48' W 001°07'4 8.4
2018-May-22 23:01N 50°44' W 001°04'510.5
2018-May-22 22:30N 50°40' W 000°59'4 8.9
2018-May-22 22:00N 50°36' W 000°60'29 9.2
2018-May-22 18:50N 50°09' W 001°19'413.1
2018-May-22 18:30N 50°08' W 001°25'713.1
2018-May-22 18:00N 50°05' W 001°35'613.1
2018-May-22 17:30N 50°03' W 001°44'613.1
2018-May-22 17:01N 50°01' W 001°54'713.4
2018-May-22 16:30N 49°59' W 002°04'4714.6
2018-May-22 13:19N 49°43' W 003°11'515.3
2018-May-22 13:00N 49°40' W 003°18'8316.0
2018-May-22 07:51N 49°00' W 005°09'616.5
2018-May-22 07:31N 48°57' W 005°16'816.5
2018-May-22 07:01N 48°52' W 005°26'816.1
2018-May-22 06:30N 48°47' W 005°36'816.1
2018-May-22 06:00N 48°40' W 005°42'59915.3
2018-May-20 14:53N 39°08' W 009°52'615.9
2018-May-20 14:30N 39°02' W 009°52'815.7
2018-May-20 14:00N 38°54' W 009°52'815.7
2018-May-20 13:30N 38°47' W 009°52'815.5
2018-May-20 13:00N 38°39' W 009°51'815.6
2018-May-20 12:30N 38°31' W 009°48'815.6
2018-May-20 12:00N 38°24' W 009°46'815.7
2018-May-20 11:30N 38°16' W 009°44'3615.6
2018-May-20 09:12N 37°41' W 009°33'315.6
2018-May-20 09:00N 37°38' W 009°33'1015.9
2018-May-20 08:24N 37°29' W 009°30'  
2018-May-15 20:23N 35°59' W 005°31'615.1
2018-May-15 20:01N 36°02' W 005°25'6 0.6
2018-May-15 10:49N 36°08' W 005°25'0 0.0
2018-May-15 09:55N 36°08' W 005°25'0 0.0
2018-May-15 08:31N 36°08' W 005°25'0 0.0
2018-May-15 08:01N 36°08' W 005°25'0 0.0
2018-May-15 07:55N 36°08' W 005°25'0 0.0
2018-May-15 07:25N 36°08' W 005°25'0 0.0
2018-May-15 06:10N 36°08' W 005°25'0 0.5
2018-May-15 06:00N 36°08' W 005°25'4 7.7
2018-May-15 05:31N 36°04' W 005°23'1 1.7
2018-May-15 05:00N 36°04' W 005°23'1 2.6
2018-May-15 04:28N 36°02' W 005°23'3 7.5
2018-May-15 04:01N 35°59' W 005°24'  
Track history (hours):
 
Tides and Currents Weather Stations Pressure Air Temp Water Temp Dewpoint Dewpoint Depression Visibility Wind Speed Wind Dir Waves Ship Positions

Philemon

Last reported at 2018-May-23 11:15 UTC. Time now 2018-May-23 15:11 UTC.
Position N 50°22' E 000°02'.

Length 158 m; draft 7.8 m.

Type: Ship (hazmat cat A). MMSI: 305574000.

Date/timePositionNaut miles runAvg speedWind from/ knotsBaromVisibWave heightAir tempDewpointWater temp
2018-May-23 11:15N 50°22' E 000°02'1311.2
2018-May-23 10:06N 50°27' W 000°16'111.3
2018-May-23 10:00N 50°28' W 000°18'711.2
2018-May-23 09:21N 50°31' W 000°28'411.4
2018-May-23 09:00N 50°33' W 000°34'611.4
2018-May-23 08:30N 50°35' W 000°42'711.1
2018-May-23 07:52N 50°39' W 000°52'411.5
2018-May-23 07:30N 50°41' W 000°57'510.4
2018-May-23 07:00N 50°44' W 001°04'5 9.5
2018-May-23 06:31N 50°48' W 001°07'1 1.7
2018-May-23 05:58N 50°49' W 001°05'0 0.0
2018-May-23 05:28N 50°49' W 001°05'0 0.0
2018-May-23 04:58N 50°49' W 001°05'0 0.0
2018-May-23 04:28N 50°49' W 001°05'0 0.0
2018-May-23 03:58N 50°49' W 001°05'0 0.0
2018-May-23 03:28N 50°49' W 001°05'0 0.0
2018-May-23 02:58N 50°49' W 001°05'0 0.0
2018-May-23 02:28N 50°49' W 001°05'0 0.0
2018-May-23 01:58N 50°49' W 001°05'0 0.0
2018-May-23 01:28N 50°49' W 001°05'0 0.0
2018-May-23 00:58N 50°49' W 001°05'0 0.0
2018-May-23 00:28N 50°49' W 001°05'0 0.0
2018-May-23 00:00N 50°49' W 001°05'1 2.0
2018-May-22 23:31N 50°48' W 001°07'4 8.4
2018-May-22 23:01N 50°44' W 001°04'510.5
2018-May-22 22:30N 50°40' W 000°59'4 8.9
2018-May-22 22:00N 50°36' W 000°60'29 9.2
2018-May-22 18:50N 50°09' W 001°19'413.1
2018-May-22 18:30N 50°08' W 001°25'713.1
2018-May-22 18:00N 50°05' W 001°35'613.1
2018-May-22 17:30N 50°03' W 001°44'613.1
2018-May-22 17:01N 50°01' W 001°54'713.4
2018-May-22 16:30N 49°59' W 002°04'4714.6
2018-May-22 13:19N 49°43' W 003°11'515.3
2018-May-22 13:00N 49°40' W 003°18'8316.0
2018-May-22 07:51N 49°00' W 005°09'616.5
2018-May-22 07:31N 48°57' W 005°16'816.5
2018-May-22 07:01N 48°52' W 005°26'816.1
2018-May-22 06:30N 48°47' W 005°36'816.1
2018-May-22 06:00N 48°40' W 005°42'59915.3
2018-May-20 14:53N 39°08' W 009°52'615.9
2018-May-20 14:30N 39°02' W 009°52'815.7
2018-May-20 14:00N 38°54' W 009°52'815.7
2018-May-20 13:30N 38°47' W 009°52'815.5
2018-May-20 13:00N 38°39' W 009°51'815.6
2018-May-20 12:30N 38°31' W 009°48'815.6
2018-May-20 12:00N 38°24' W 009°46'815.7
2018-May-20 11:30N 38°16' W 009°44'3615.6
2018-May-20 09:12N 37°41' W 009°33'315.6
2018-May-20 09:00N 37°38' W 009°33'1015.9
2018-May-20 08:24N 37°29' W 009°30'  
2018-May-15 20:23N 35°59' W 005°31'615.1
2018-May-15 20:01N 36°02' W 005°25'6 0.6
2018-May-15 10:49N 36°08' W 005°25'0 0.0
2018-May-15 09:55N 36°08' W 005°25'0 0.0
2018-May-15 08:31N 36°08' W 005°25'0 0.0
2018-May-15 08:01N 36°08' W 005°25'0 0.0
2018-May-15 07:55N 36°08' W 005°25'0 0.0
2018-May-15 07:25N 36°08' W 005°25'0 0.0
2018-May-15 06:10N 36°08' W 005°25'0 0.5
2018-May-15 06:00N 36°08' W 005°25'4 7.7
2018-May-15 05:31N 36°04' W 005°23'1 1.7
2018-May-15 05:00N 36°04' W 005°23'1 2.6
2018-May-15 04:28N 36°02' W 005°23'3 7.5
2018-May-15 04:01N 35°59' W 005°24'  

Dump ship's entire track history